Αρχική σελίδα
METAR-TAF:

METAR-TAF

Αεροδρόμια :

Πούντα Αρένας, Χιλή

γεωγραφικό πλάτος: 53-00S, γεωγραφικό μήκος: 070-51W, υψόμετρο: 37 μ

Παρών καιρός

Η αναφορά έγινε 1 ώρα και 9 λεπτά πριν, στις 04:00 UTC
Άνεμος 6 kt από Ν/ΝΔ
Θερμοκρασία 1°C
Υγρασία 59%
Πίεση 1004 hPa
Ορατότητα 10 χλμ και άνω
Αρκετά νέφη σε ύψος 4000 πόδια

METAR: SCCI 230400Z 20006KT 9999 BKN040 01/M06 Q1004 NOSIG

Χρόνος: 02:09 (05:09 UTC)

Πρόγνωση Καιρού

Η αναφορά έγινε 6 ώρες και 43 λεπτά πριν, στις 22:26 UTC
Η πρόγνωση ισχύει από τις 23 στις 00 UTC έως τις 24 στις 00 UTC
Άνεμος 5 kt από Ν/NA
Ορατότητα 10 χλμ και άνω
Διάσπαρτα νέφη σε ύψος 4000 πόδια
Καθιστάμενος
από 23 στις 04 UTC έως τις 23 στις 06 UTC
Άνεμος 10 kt από Ν/ΝΔ
Προσωρινά
από 23 στις 13 UTC έως τις 23 στις 18 UTC
Άνεμος 17 kt από Ν

TAF: SCCI 222226Z 2300/2400 16005KT 9999 SCT040 TNM02/2310Z TX05/2318Z BECMG 2304/2306 20010KT TEMPO 2313/2318 18017KT

Μετεωρολογικές αναφορές και προγνώσεις για περισσότερα από 4000 αεροδρόμια (δελτία METAR και TAF).

Οι διαθέσιμοι σταθμοί απεικονίζονται στο χάρτη με κίτρινες και κόκκινες κουκκίδες.

Μετακινήστε το ποντίκι πάνω από τις κουκκίδες για να δείτε το όνομα του σταθμού.

Στη συνέχεια, κάντε κλικ για να δείτε τις μετεωρολογικές αναφορές και τις προγνώσεις καιρού.

Για να αλλάξετε το χάρτη: κάντε κλικ στα πράσινα κουμπιά με τον μαύρο σταυρό για να ζουμάρετε, στο πράσινο κουμπί με την παύλα για να αφαιρέσετε το ζουμ ή στα πράσινα βέλη για να αντιπαραβάλλετε χάρτες.


METAR-TAF: